Hawick, United Kingdom
Current Conditions -  °F | °C
As of 4:50 PM on Thursday 23 Oct 2014 (Local Time) from EGNC Reporting Station
Rain Showers Rain Showers  
Wind Chill: 14°   Ceiling: 2200
Heat Index: 14°   Visibility: 6mi
Dew Point: 13°   Wind: 16mph
Humidity: 94%   Direction: 230°SW
Pressure: 29.8"   Gusts: NA
Location:  55.42°N, 2.79°W
Report Text: EGNC 231550Z 23014KT 9999 VCSH SCT015 BKN022 14/13 Q1009
Loading
Personal Weather Stations






























Interactive Weather Map
Tropical Storm Tracking
New forecast layout! Learn more

10-Day Weather Forecast

Advertisements
Track Severe Weather on mobile